sensor_id;sensor_type;location;lat;lon;timestamp;pressure;altitude;pressure_sealevel;temperature;humidity
6349;BME280;3207;42.648;23.406;2023-01-19T00:02:13;98297.34;;;7.51;nan
6349;BME280;3207;42.648;23.406;2023-01-19T00:04:40;98297.34;;;7.51;nan
6349;BME280;3207;42.648;23.406;2023-01-19T00:07:07;98295.69;;;7.41;nan
6349;BME280;3207;42.648;23.406;2023-01-19T00:09:35;98280.34;;;7.38;nan
6349;BME280;3207;42.648;23.406;2023-01-19T00:12:10;98293.47;;;7.36;nan
6349;BME280;3207;42.648;23.406;2023-01-19T00:14:37;98291.44;;;7.40;nan
6349;BME280;3207;42.648;23.406;2023-01-19T00:17:04;98271.19;;;7.33;nan
6349;BME280;3207;42.648;23.406;2023-01-19T00:19:31;98276.50;;;7.32;nan
6349;BME280;3207;42.648;23.406;2023-01-19T00:21:57;98300.72;;;7.42;nan
6349;BME280;3207;42.648;23.406;2023-01-19T00:24:24;98295.69;;;7.41;nan
6349;BME280;3207;42.648;23.406;2023-01-19T00:26:52;98310.72;;;7.37;nan
6349;BME280;3207;42.648;23.406;2023-01-19T00:29:19;98308.13;;;7.37;nan
6349;BME280;3207;42.648;23.406;2023-01-19T00:31:46;98312.06;;;7.31;nan
6349;BME280;3207;42.648;23.406;2023-01-19T00:34:13;98320.28;;;7.37;nan
6349;BME280;3207;42.648;23.406;2023-01-19T00:36:40;98293.84;;;7.22;nan
6349;BME280;3207;42.648;23.406;2023-01-19T00:39:07;98304.97;;;7.33;nan
6349;BME280;3207;42.648;23.406;2023-01-19T00:41:34;98316.63;;;7.39;nan
6349;BME280;3207;42.648;23.406;2023-01-19T00:44:28;98323.31;;;7.42;nan
6349;BME280;3207;42.648;23.406;2023-01-19T00:46:55;98322.19;;;7.34;nan
6349;BME280;3207;42.648;23.406;2023-01-19T00:49:21;98329.63;;;7.39;nan
6349;BME280;3207;42.648;23.406;2023-01-19T00:51:48;98283.88;;;7.17;nan
6349;BME280;3207;42.648;23.406;2023-01-19T00:54:15;98332.34;;;7.38;nan
6349;BME280;3207;42.648;23.406;2023-01-19T00:56:42;98338.38;;;7.38;nan
6349;BME280;3207;42.648;23.406;2023-01-19T00:59:09;98326.31;;;7.37;nan
6349;BME280;3207;42.648;23.406;2023-01-19T01:01:37;98318.78;;;7.34;nan
6349;BME280;3207;42.648;23.406;2023-01-19T01:04:04;98329.88;;;7.36;nan
6349;BME280;3207;42.648;23.406;2023-01-19T01:06:31;98322.75;;;7.28;nan
6349;BME280;3207;42.648;23.406;2023-01-19T01:08:58;98314.94;;;7.28;nan
6349;BME280;3207;42.648;23.406;2023-01-19T01:11:24;98329.59;;;7.29;nan
6349;BME280;3207;42.648;23.406;2023-01-19T01:13:51;98335.75;;;7.28;nan
6349;BME280;3207;42.648;23.406;2023-01-19T01:16:18;98327.00;;;7.29;nan
6349;BME280;3207;42.648;23.406;2023-01-19T01:18:46;98319.19;;;7.29;nan
6349;BME280;3207;42.648;23.406;2023-01-19T01:21:13;98306.47;;;7.26;nan
6349;BME280;3207;42.648;23.406;2023-01-19T01:23:40;98299.22;;;7.30;nan
6349;BME280;3207;42.648;23.406;2023-01-19T01:26:07;98295.81;;;7.29;nan
6349;BME280;3207;42.648;23.406;2023-01-19T01:28:33;98291.00;;;7.25;nan
6349;BME280;3207;42.648;23.406;2023-01-19T01:31:00;98291.94;;;7.24;nan
6349;BME280;3207;42.648;23.406;2023-01-19T01:33:27;98289.47;;;7.22;nan
6349;BME280;3207;42.648;23.406;2023-01-19T01:35:55;98285.50;;;7.18;nan
6349;BME280;3207;42.648;23.406;2023-01-19T01:38:22;98299.84;;;7.13;nan
6349;BME280;3207;42.648;23.406;2023-01-19T01:40:49;98296.13;;;7.06;nan
6349;BME280;3207;42.648;23.406;2023-01-19T01:43:17;98300.88;;;7.01;nan
6349;BME280;3207;42.648;23.406;2023-01-19T01:45:45;98299.13;;;7.01;nan
6349;BME280;3207;42.648;23.406;2023-01-19T01:48:14;98296.09;;;6.96;nan
6349;BME280;3207;42.648;23.406;2023-01-19T01:50:46;98310.34;;;7.02;nan
6349;BME280;3207;42.648;23.406;2023-01-19T01:53:30;98310.91;;;7.05;nan
6349;BME280;3207;42.648;23.406;2023-01-19T01:56:00;98309.25;;;7.04;nan
6349;BME280;3207;42.648;23.406;2023-01-19T01:58:29;98310.19;;;7.03;nan
6349;BME280;3207;42.648;23.406;2023-01-19T02:00:57;98305.72;;;7.05;nan
6349;BME280;3207;42.648;23.406;2023-01-19T02:03:41;98293.28;;;7.09;nan
6349;BME280;3207;42.648;23.406;2023-01-19T02:06:09;98295.72;;;7.10;nan
6349;BME280;3207;42.648;23.406;2023-01-19T02:08:42;98262.47;;;6.94;nan
6349;BME280;3207;42.648;23.406;2023-01-19T02:11:30;98296.28;;;7.14;nan
6349;BME280;3207;42.648;23.406;2023-01-19T02:14:15;98297.81;;;7.16;nan
6349;BME280;3207;42.648;23.406;2023-01-19T02:16:43;98292.63;;;7.16;nan
6349;BME280;3207;42.648;23.406;2023-01-19T02:19:14;98304.94;;;7.24;nan
6349;BME280;3207;42.648;23.406;2023-01-19T02:21:48;98297.16;;;7.24;nan
6349;BME280;3207;42.648;23.406;2023-01-19T02:24:20;98303.59;;;7.29;nan
6349;BME280;3207;42.648;23.406;2023-01-19T02:26:47;98298.66;;;7.26;nan
6349;BME280;3207;42.648;23.406;2023-01-19T02:29:17;98305.25;;;7.30;nan
6349;BME280;3207;42.648;23.406;2023-01-19T02:31:45;98307.97;;;7.29;nan
6349;BME280;3207;42.648;23.406;2023-01-19T02:34:14;98306.03;;;7.31;nan
6349;BME280;3207;42.648;23.406;2023-01-19T02:36:46;98313.72;;;7.32;nan
6349;BME280;3207;42.648;23.406;2023-01-19T02:39:18;98277.25;;;7.04;nan
6349;BME280;3207;42.648;23.406;2023-01-19T02:41:50;98305.19;;;7.21;nan
6349;BME280;3207;42.648;23.406;2023-01-19T02:44:19;98312.28;;;7.09;nan
6349;BME280;3207;42.648;23.406;2023-01-19T02:46:46;98312.81;;;7.03;nan
6349;BME280;3207;42.648;23.406;2023-01-19T02:49:13;98318.44;;;7.08;nan
6349;BME280;3207;42.648;23.406;2023-01-19T02:51:42;98307.91;;;7.10;nan
6349;BME280;3207;42.648;23.406;2023-01-19T02:54:32;98304.88;;;7.05;nan
6349;BME280;3207;42.648;23.406;2023-01-19T02:57:32;98309.50;;;7.01;nan
6349;BME280;3207;42.648;23.406;2023-01-19T03:00:15;98319.91;;;7.01;nan
6349;BME280;3207;42.648;23.406;2023-01-19T03:02:51;98327.44;;;7.04;nan
6349;BME280;3207;42.648;23.406;2023-01-19T03:05:29;98336.59;;;6.98;nan
6349;BME280;3207;42.648;23.406;2023-01-19T03:08:06;98335.06;;;6.96;nan
6349;BME280;3207;42.648;23.406;2023-01-19T03:10:42;98342.16;;;6.94;nan
6349;BME280;3207;42.648;23.406;2023-01-19T03:13:16;98350.25;;;7.01;nan
6349;BME280;3207;42.648;23.406;2023-01-19T03:15:47;98331.22;;;7.00;nan
6349;BME280;3207;42.648;23.406;2023-01-19T03:18:18;98319.38;;;7.07;nan
6349;BME280;3207;42.648;23.406;2023-01-19T03:20:50;98320.75;;;7.11;nan
6349;BME280;3207;42.648;23.406;2023-01-19T03:23:20;98327.88;;;7.09;nan
6349;BME280;3207;42.648;23.406;2023-01-19T03:25:48;98326.91;;;7.10;nan
6349;BME280;3207;42.648;23.406;2023-01-19T03:28:19;98340.72;;;7.11;nan
6349;BME280;3207;42.648;23.406;2023-01-19T03:30:52;98342.47;;;7.10;nan
6349;BME280;3207;42.648;23.406;2023-01-19T03:33:24;98342.34;;;7.12;nan
6349;BME280;3207;42.648;23.406;2023-01-19T03:35:56;98344.97;;;7.12;nan
6349;BME280;3207;42.648;23.406;2023-01-19T03:38:31;98344.66;;;7.05;nan
6349;BME280;3207;42.648;23.406;2023-01-19T03:41:02;98347.50;;;7.02;nan
6349;BME280;3207;42.648;23.406;2023-01-19T03:43:32;98360.38;;;7.04;nan
6349;BME280;3207;42.648;23.406;2023-01-19T03:46:02;98357.91;;;7.02;nan
6349;BME280;3207;42.648;23.406;2023-01-19T03:48:31;98358.19;;;6.99;nan
6349;BME280;3207;42.648;23.406;2023-01-19T03:51:02;98344.97;;;6.81;nan
6349;BME280;3207;42.648;23.406;2023-01-19T03:53:29;98337.56;;;6.77;nan
6349;BME280;3207;42.648;23.406;2023-01-19T03:55:56;98324.66;;;6.66;nan
6349;BME280;3207;42.648;23.406;2023-01-19T03:58:23;98335.06;;;6.66;nan
6349;BME280;3207;42.648;23.406;2023-01-19T04:00:51;98327.25;;;6.66;nan
6349;BME280;3207;42.648;23.406;2023-01-19T04:03:18;98308.25;;;6.65;nan
6349;BME280;3207;42.648;23.406;2023-01-19T04:05:45;98315.59;;;6.60;nan
6349;BME280;3207;42.648;23.406;2023-01-19T04:08:11;98323.78;;;6.55;nan
6349;BME280;3207;42.648;23.406;2023-01-19T04:10:38;98313.91;;;6.49;nan
6349;BME280;3207;42.648;23.406;2023-01-19T04:13:05;98318.22;;;6.39;nan
6349;BME280;3207;42.648;23.406;2023-01-19T04:15:32;98347.75;;;6.48;nan
6349;BME280;3207;42.648;23.406;2023-01-19T04:18:00;98353.00;;;6.37;nan
6349;BME280;3207;42.648;23.406;2023-01-19T04:20:27;98373.50;;;6.19;nan
6349;BME280;3207;42.648;23.406;2023-01-19T04:22:57;98366.38;;;6.32;nan
6349;BME280;3207;42.648;23.406;2023-01-19T04:25:24;98376.25;;;6.38;nan
6349;BME280;3207;42.648;23.406;2023-01-19T04:27:52;98385.19;;;6.45;nan
6349;BME280;3207;42.648;23.406;2023-01-19T04:30:19;98367.97;;;6.44;nan
6349;BME280;3207;42.648;23.406;2023-01-19T04:32:46;98369.81;;;6.53;nan
6349;BME280;3207;42.648;23.406;2023-01-19T04:35:15;98364.63;;;6.53;nan
6349;BME280;3207;42.648;23.406;2023-01-19T04:37:42;98369.94;;;6.52;nan
6349;BME280;3207;42.648;23.406;2023-01-19T04:40:10;98366.94;;;6.36;nan
6349;BME280;3207;42.648;23.406;2023-01-19T04:42:37;98355.06;;;6.33;nan
6349;BME280;3207;42.648;23.406;2023-01-19T04:45:05;98363.59;;;6.24;nan
6349;BME280;3207;42.648;23.406;2023-01-19T04:47:32;98359.13;;;6.15;nan
6349;BME280;3207;42.648;23.406;2023-01-19T04:49:59;98356.34;;;6.07;nan
6349;BME280;3207;42.648;23.406;2023-01-19T04:52:31;98353.69;;;6.18;nan
6349;BME280;3207;42.648;23.406;2023-01-19T04:55:00;98361.16;;;6.11;nan
6349;BME280;3207;42.648;23.406;2023-01-19T04:57:27;98381.09;;;6.11;nan
6349;BME280;3207;42.648;23.406;2023-01-19T04:59:54;98375.28;;;6.18;nan
6349;BME280;3207;42.648;23.406;2023-01-19T05:02:21;98360.47;;;6.09;nan
6349;BME280;3207;42.648;23.406;2023-01-19T05:04:48;98371.16;;;6.16;nan
6349;BME280;3207;42.648;23.406;2023-01-19T05:07:15;98362.06;;;5.90;nan
6349;BME280;3207;42.648;23.406;2023-01-19T05:09:43;98377.47;;;6.02;nan
6349;BME280;3207;42.648;23.406;2023-01-19T05:12:10;98380.75;;;6.04;nan
6349;BME280;3207;42.648;23.406;2023-01-19T05:14:37;98393.88;;;5.80;nan
6349;BME280;3207;42.648;23.406;2023-01-19T05:17:03;98392.78;;;5.83;nan
6349;BME280;3207;42.648;23.406;2023-01-19T05:19:31;98389.25;;;5.84;nan
6349;BME280;3207;42.648;23.406;2023-01-19T05:21:57;98394.59;;;5.82;nan
6349;BME280;3207;42.648;23.406;2023-01-19T05:24:24;98415.09;;;5.74;nan
6349;BME280;3207;42.648;23.406;2023-01-19T05:26:52;98426.19;;;5.65;nan
6349;BME280;3207;42.648;23.406;2023-01-19T05:29:19;98433.25;;;5.52;nan
6349;BME280;3207;42.648;23.406;2023-01-19T05:31:46;98433.50;;;5.49;nan
6349;BME280;3207;42.648;23.406;2023-01-19T05:34:13;98432.06;;;5.56;nan
6349;BME280;3207;42.648;23.406;2023-01-19T05:36:40;98429.59;;;5.55;nan
6349;BME280;3207;42.648;23.406;2023-01-19T05:39:07;98432.56;;;5.50;nan
6349;BME280;3207;42.648;23.406;2023-01-19T05:41:34;98442.66;;;5.53;nan
6349;BME280;3207;42.648;23.406;2023-01-19T05:44:02;98444.22;;;5.56;nan
6349;BME280;3207;42.648;23.406;2023-01-19T05:46:29;98439.63;;;5.48;nan
6349;BME280;3207;42.648;23.406;2023-01-19T05:48:56;98447.84;;;5.53;nan
6349;BME280;3207;42.648;23.406;2023-01-19T05:51:26;98449.28;;;5.46;nan
6349;BME280;3207;42.648;23.406;2023-01-19T05:53:59;98458.47;;;5.50;nan
6349;BME280;3207;42.648;23.406;2023-01-19T05:56:26;98481.53;;;5.64;nan
6349;BME280;3207;42.648;23.406;2023-01-19T05:58:53;98476.84;;;5.58;nan
6349;BME280;3207;42.648;23.406;2023-01-19T06:01:21;98472.81;;;5.43;nan
6349;BME280;3207;42.648;23.406;2023-01-19T06:03:48;98483.56;;;5.49;nan
6349;BME280;3207;42.648;23.406;2023-01-19T06:06:15;98498.50;;;5.46;nan
6349;BME280;3207;42.648;23.406;2023-01-19T06:08:43;98496.53;;;5.49;nan
6349;BME280;3207;42.648;23.406;2023-01-19T06:11:10;98500.63;;;5.52;nan
6349;BME280;3207;42.648;23.406;2023-01-19T06:13:37;98486.84;;;5.51;nan
6349;BME280;3207;42.648;23.406;2023-01-19T06:16:05;98488.63;;;5.40;nan
6349;BME280;3207;42.648;23.406;2023-01-19T06:18:34;98498.94;;;5.18;nan
6349;BME280;3207;42.648;23.406;2023-01-19T06:21:04;98507.03;;;5.13;nan
6349;BME280;3207;42.648;23.406;2023-01-19T06:23:33;98521.00;;;4.99;nan
6349;BME280;3207;42.648;23.406;2023-01-19T06:26:00;98521.19;;;5.20;nan
6349;BME280;3207;42.648;23.406;2023-01-19T06:28:27;98535.78;;;5.21;nan
6349;BME280;3207;42.648;23.406;2023-01-19T06:30:57;98528.13;;;5.08;nan
6349;BME280;3207;42.648;23.406;2023-01-19T06:33:24;98515.31;;;4.83;nan
6349;BME280;3207;42.648;23.406;2023-01-19T06:35:54;98553.06;;;5.09;nan
6349;BME280;3207;42.648;23.406;2023-01-19T06:38:21;98547.50;;;5.03;nan
6349;BME280;3207;42.648;23.406;2023-01-19T06:40:51;98556.31;;;5.00;nan
6349;BME280;3207;42.648;23.406;2023-01-19T06:43:19;98570.56;;;4.95;nan
6349;BME280;3207;42.648;23.406;2023-01-19T06:45:46;98579.16;;;4.95;nan
6349;BME280;3207;42.648;23.406;2023-01-19T06:48:14;98582.16;;;4.89;nan
6349;BME280;3207;42.648;23.406;2023-01-19T06:50:43;98590.03;;;4.88;nan
6349;BME280;3207;42.648;23.406;2023-01-19T06:53:11;98525.53;;;4.50;nan
6349;BME280;3207;42.648;23.406;2023-01-19T06:55:38;98594.41;;;4.87;nan
6349;BME280;3207;42.648;23.406;2023-01-19T06:58:05;98589.78;;;4.79;nan
6349;BME280;3207;42.648;23.406;2023-01-19T07:00:32;98609.53;;;4.81;nan
6349;BME280;3207;42.648;23.406;2023-01-19T07:02:59;98605.13;;;4.70;nan
6349;BME280;3207;42.648;23.406;2023-01-19T07:05:26;98625.13;;;4.68;nan
6349;BME280;3207;42.648;23.406;2023-01-19T07:07:53;98623.25;;;4.70;nan
6349;BME280;3207;42.648;23.406;2023-01-19T07:10:23;98585.75;;;4.52;nan
6349;BME280;3207;42.648;23.406;2023-01-19T07:12:50;98629.63;;;4.77;nan
6349;BME280;3207;42.648;23.406;2023-01-19T07:15:18;98602.41;;;4.48;nan
6349;BME280;3207;42.648;23.406;2023-01-19T07:17:47;98645.81;;;4.68;nan
6349;BME280;3207;42.648;23.406;2023-01-19T07:20:14;98622.38;;;4.46;nan
6349;BME280;3207;42.648;23.406;2023-01-19T07:22:44;98652.47;;;4.59;nan
6349;BME280;3207;42.648;23.406;2023-01-19T07:25:11;98656.16;;;4.68;nan
6349;BME280;3207;42.648;23.406;2023-01-19T07:27:40;98655.84;;;4.72;nan
6349;BME280;3207;42.648;23.406;2023-01-19T07:30:08;98671.66;;;4.81;nan
6349;BME280;3207;42.648;23.406;2023-01-19T07:32:35;98667.47;;;4.91;nan
6349;BME280;3207;42.648;23.406;2023-01-19T07:35:03;98669.97;;;4.92;nan
6349;BME280;3207;42.648;23.406;2023-01-19T07:37:30;98678.63;;;5.04;nan
6349;BME280;3207;42.648;23.406;2023-01-19T07:39:56;98672.63;;;5.03;nan
6349;BME280;3207;42.648;23.406;2023-01-19T07:42:23;98687.50;;;5.12;nan
6349;BME280;3207;42.648;23.406;2023-01-19T07:44:52;98686.47;;;5.15;nan
6349;BME280;3207;42.648;23.406;2023-01-19T07:47:19;98698.47;;;5.16;nan
6349;BME280;3207;42.648;23.406;2023-01-19T07:49:46;98688.69;;;5.20;nan
6349;BME280;3207;42.648;23.406;2023-01-19T07:52:12;98696.97;;;5.25;nan
6349;BME280;3207;42.648;23.406;2023-01-19T07:54:39;98703.56;;;5.18;nan
6349;BME280;3207;42.648;23.406;2023-01-19T07:57:06;98704.06;;;5.10;nan
6349;BME280;3207;42.648;23.406;2023-01-19T07:59:33;98717.75;;;5.12;nan
6349;BME280;3207;42.648;23.406;2023-01-19T08:02:01;98717.41;;;4.93;nan
6349;BME280;3207;42.648;23.406;2023-01-19T08:04:28;98711.31;;;4.81;nan
6349;BME280;3207;42.648;23.406;2023-01-19T08:06:55;98727.13;;;4.89;nan
6349;BME280;3207;42.648;23.406;2023-01-19T08:09:22;98723.63;;;4.90;nan
6349;BME280;3207;42.648;23.406;2023-01-19T08:11:49;98737.09;;;4.83;nan
6349;BME280;3207;42.648;23.406;2023-01-19T08:14:16;98758.25;;;4.76;nan
6349;BME280;3207;42.648;23.406;2023-01-19T08:16:43;98762.50;;;4.65;nan
6349;BME280;3207;42.648;23.406;2023-01-19T08:19:11;98760.84;;;4.64;nan
6349;BME280;3207;42.648;23.406;2023-01-19T08:21:38;98776.47;;;4.37;nan
6349;BME280;3207;42.648;23.406;2023-01-19T08:24:05;98778.22;;;4.36;nan
6349;BME280;3207;42.648;23.406;2023-01-19T08:26:33;98776.78;;;4.32;nan
6349;BME280;3207;42.648;23.406;2023-01-19T08:29:02;98784.03;;;4.40;nan
6349;BME280;3207;42.648;23.406;2023-01-19T08:31:30;98763.94;;;4.18;nan
6349;BME280;3207;42.648;23.406;2023-01-19T08:33:57;98811.22;;;4.46;nan
6349;BME280;3207;42.648;23.406;2023-01-19T08:36:25;98812.28;;;4.43;nan
6349;BME280;3207;42.648;23.406;2023-01-19T08:38:52;98801.38;;;4.25;nan
6349;BME280;3207;42.648;23.406;2023-01-19T08:41:19;98821.25;;;4.25;nan
6349;BME280;3207;42.648;23.406;2023-01-19T08:43:46;98813.25;;;4.15;nan
6349;BME280;3207;42.648;23.406;2023-01-19T08:46:13;98841.44;;;4.32;nan
6349;BME280;3207;42.648;23.406;2023-01-19T08:48:42;98839.47;;;4.23;nan
6349;BME280;3207;42.648;23.406;2023-01-19T08:51:10;98843.09;;;3.94;nan
6349;BME280;3207;42.648;23.406;2023-01-19T08:53:39;98852.31;;;3.98;nan
6349;BME280;3207;42.648;23.406;2023-01-19T08:56:07;98846.50;;;3.94;nan
6349;BME280;3207;42.648;23.406;2023-01-19T08:58:37;98863.19;;;4.03;nan
6349;BME280;3207;42.648;23.406;2023-01-19T09:01:05;98872.31;;;4.09;nan
6349;BME280;3207;42.648;23.406;2023-01-19T09:03:33;98873.03;;;4.11;nan
6349;BME280;3207;42.648;23.406;2023-01-19T09:06:00;98870.38;;;4.12;nan
6349;BME280;3207;42.648;23.406;2023-01-19T09:08:27;98879.84;;;3.99;nan
6349;BME280;3207;42.648;23.406;2023-01-19T09:10:55;98881.88;;;3.94;nan
6349;BME280;3207;42.648;23.406;2023-01-19T09:13:22;98877.97;;;4.01;nan
6349;BME280;3207;42.648;23.406;2023-01-19T09:15:52;98882.41;;;3.99;nan
6349;BME280;3207;42.648;23.406;2023-01-19T09:18:20;98880.66;;;3.99;nan
6349;BME280;3207;42.648;23.406;2023-01-19T09:20:48;98890.81;;;4.02;nan
6349;BME280;3207;42.648;23.406;2023-01-19T09:23:17;98895.34;;;3.99;nan
6349;BME280;3207;42.648;23.406;2023-01-19T09:25:45;98907.34;;;4.00;nan
6349;BME280;3207;42.648;23.406;2023-01-19T09:28:16;98908.25;;;3.99;nan
6349;BME280;3207;42.648;23.406;2023-01-19T09:30:43;98911.19;;;4.07;nan
6349;BME280;3207;42.648;23.406;2023-01-19T09:33:11;98920.47;;;3.83;nan
6349;BME280;3207;42.648;23.406;2023-01-19T09:35:40;98923.19;;;3.81;nan
6349;BME280;3207;42.648;23.406;2023-01-19T09:38:08;98922.41;;;3.93;nan
6349;BME280;3207;42.648;23.406;2023-01-19T09:40:36;98933.78;;;3.91;nan
6349;BME280;3207;42.648;23.406;2023-01-19T09:43:12;98941.56;;;3.77;nan
6349;BME280;3207;42.648;23.406;2023-01-19T09:45:46;98945.81;;;3.78;nan
6349;BME280;3207;42.648;23.406;2023-01-19T09:48:24;98949.66;;;3.85;nan
6349;BME280;3207;42.648;23.406;2023-01-19T09:50:53;98952.78;;;3.90;nan
6349;BME280;3207;42.648;23.406;2023-01-19T09:53:34;98944.13;;;3.91;nan
6349;BME280;3207;42.648;23.406;2023-01-19T09:56:08;98954.25;;;3.94;nan
6349;BME280;3207;42.648;23.406;2023-01-19T09:58:36;98948.31;;;4.06;nan
6349;BME280;3207;42.648;23.406;2023-01-19T10:01:11;98953.28;;;4.09;nan
6349;BME280;3207;42.648;23.406;2023-01-19T10:03:42;98957.97;;;4.17;nan
6349;BME280;3207;42.648;23.406;2023-01-19T10:06:10;98934.28;;;4.10;nan
6349;BME280;3207;42.648;23.406;2023-01-19T10:08:43;98951.63;;;4.08;nan
6349;BME280;3207;42.648;23.406;2023-01-19T10:11:22;98954.25;;;3.94;nan
6349;BME280;3207;42.648;23.406;2023-01-19T10:13:54;98950.16;;;4.04;nan
6349;BME280;3207;42.648;23.406;2023-01-19T10:16:29;98954.19;;;4.22;nan
6349;BME280;3207;42.648;23.406;2023-01-19T10:19:14;98943.44;;;4.28;nan
6349;BME280;3207;42.648;23.406;2023-01-19T10:21:43;98964.59;;;4.48;nan
6349;BME280;3207;42.648;23.406;2023-01-19T10:24:16;98956.56;;;4.52;nan
6349;BME280;3207;42.648;23.406;2023-01-19T10:26:46;98951.81;;;4.71;nan
6349;BME280;3207;42.648;23.406;2023-01-19T10:29:21;98961.38;;;4.84;nan
6349;BME280;3207;42.648;23.406;2023-01-19T10:32:02;98962.63;;;4.91;nan
6349;BME280;3207;42.648;23.406;2023-01-19T10:34:30;98976.50;;;5.02;nan
6349;BME280;3207;42.648;23.406;2023-01-19T10:37:03;98977.56;;;5.12;nan
6349;BME280;3207;42.648;23.406;2023-01-19T10:39:30;98971.84;;;5.20;nan
6349;BME280;3207;42.648;23.406;2023-01-19T10:41:59;98971.75;;;5.34;nan
6349;BME280;3207;42.648;23.406;2023-01-19T10:44:34;98971.34;;;5.40;nan
6349;BME280;3207;42.648;23.406;2023-01-19T10:47:03;98971.84;;;5.45;nan
6349;BME280;3207;42.648;23.406;2023-01-19T10:49:35;98970.81;;;5.48;nan
6349;BME280;3207;42.648;23.406;2023-01-19T10:52:05;98967.41;;;5.60;nan
6349;BME280;3207;42.648;23.406;2023-01-19T10:54:33;98955.88;;;5.64;nan
6349;BME280;3207;42.648;23.406;2023-01-19T10:57:04;98956.78;;;5.63;nan
6349;BME280;3207;42.648;23.406;2023-01-19T10:59:35;98965.94;;;5.69;nan
6349;BME280;3207;42.648;23.406;2023-01-19T11:02:17;98968.81;;;5.64;nan
6349;BME280;3207;42.648;23.406;2023-01-19T11:04:44;98972.78;;;5.70;nan
6349;BME280;3207;42.648;23.406;2023-01-19T11:07:16;98979.38;;;5.74;nan
6349;BME280;3207;42.648;23.406;2023-01-19T11:09:44;98990.38;;;5.77;nan
6349;BME280;3207;42.648;23.406;2023-01-19T11:12:16;98994.34;;;5.70;nan
6349;BME280;3207;42.648;23.406;2023-01-19T11:14:45;98999.81;;;5.66;nan
6349;BME280;3207;42.648;23.406;2023-01-19T11:17:22;98998.78;;;5.68;nan
6349;BME280;3207;42.648;23.406;2023-01-19T11:19:56;99001.78;;;5.62;nan
6349;BME280;3207;42.648;23.406;2023-01-19T11:22:27;99003.16;;;5.55;nan
6349;BME280;3207;42.648;23.406;2023-01-19T11:24:58;99008.34;;;5.55;nan
6349;BME280;3207;42.648;23.406;2023-01-19T11:27:25;99017.56;;;5.59;nan
6349;BME280;3207;42.648;23.406;2023-01-19T11:30:02;99024.09;;;5.52;nan
6349;BME280;3207;42.648;23.406;2023-01-19T11:32:36;99025.88;;;5.39;nan
6349;BME280;3207;42.648;23.406;2023-01-19T11:35:37;99022.63;;;5.23;nan
6349;BME280;3207;42.648;23.406;2023-01-19T11:38:06;99022.13;;;5.18;nan
6349;BME280;3207;42.648;23.406;2023-01-19T11:40:33;99027.91;;;5.08;nan
6349;BME280;3207;42.648;23.406;2023-01-19T11:43:01;99034.34;;;5.15;nan
6349;BME280;3207;42.648;23.406;2023-01-19T11:45:27;99042.53;;;5.22;nan
6349;BME280;3207;42.648;23.406;2023-01-19T11:47:56;99040.13;;;5.06;nan
6349;BME280;3207;42.648;23.406;2023-01-19T11:50:24;99041.31;;;4.88;nan
6349;BME280;3207;42.648;23.406;2023-01-19T11:52:58;99048.69;;;4.94;nan
6349;BME280;3207;42.648;23.406;2023-01-19T11:55:32;99047.63;;;4.84;nan
6349;BME280;3207;42.648;23.406;2023-01-19T11:58:02;99042.56;;;4.83;nan
6349;BME280;3207;42.648;23.406;2023-01-19T12:00:33;99032.34;;;4.94;nan
6349;BME280;3207;42.648;23.406;2023-01-19T12:03:09;99034.28;;;4.90;nan
6349;BME280;3207;42.648;23.406;2023-01-19T12:05:41;99038.03;;;4.99;nan
6349;BME280;3207;42.648;23.406;2023-01-19T12:08:14;99042.69;;;4.94;nan
6349;BME280;3207;42.648;23.406;2023-01-19T12:10:44;99042.19;;;5.01;nan
6349;BME280;3207;42.648;23.406;2023-01-19T12:13:18;99022.72;;;4.96;nan
6349;BME280;3207;42.648;23.406;2023-01-19T12:15:47;99027.91;;;5.08;nan
6349;BME280;3207;42.648;23.406;2023-01-19T12:18:20;99026.56;;;5.15;nan
6349;BME280;3207;42.648;23.406;2023-01-19T12:20:50;99022.81;;;5.20;nan
6349;BME280;3207;42.648;23.406;2023-01-19T12:23:24;99030.22;;;5.26;nan
6349;BME280;3207;42.648;23.406;2023-01-19T12:26:05;99033.31;;;5.18;nan
6349;BME280;3207;42.648;23.406;2023-01-19T12:28:41;99047.91;;;5.32;nan
6349;BME280;3207;42.648;23.406;2023-01-19T12:31:08;99050.22;;;5.36;nan
6349;BME280;3207;42.648;23.406;2023-01-19T12:33:37;99046.38;;;5.42;nan
6349;BME280;3207;42.648;23.406;2023-01-19T12:36:08;99047.94;;;5.44;nan
6349;BME280;3207;42.648;23.406;2023-01-19T12:38:43;99065.78;;;5.49;nan
6349;BME280;3207;42.648;23.406;2023-01-19T12:41:20;99058.94;;;5.48;nan
6349;BME280;3207;42.648;23.406;2023-01-19T12:46:51;99068.78;;;5.43;nan
6349;BME280;3207;42.648;23.406;2023-01-19T12:49:25;99077.56;;;5.40;nan
6349;BME280;3207;42.648;23.406;2023-01-19T12:52:09;99080.38;;;5.37;nan
6349;BME280;3207;42.648;23.406;2023-01-19T12:54:40;99081.81;;;5.41;nan
6349;BME280;3207;42.648;23.406;2023-01-19T12:57:16;99077.56;;;5.40;nan
6349;BME280;3207;42.648;23.406;2023-01-19T12:59:44;99069.78;;;5.40;nan
6349;BME280;3207;42.648;23.406;2023-01-19T13:05:22;99048.66;;;5.34;nan
6349;BME280;3207;42.648;23.406;2023-01-19T13:08:12;99062.72;;;5.30;nan
6349;BME280;3207;42.648;23.406;2023-01-19T13:13:40;99061.41;;;5.37;nan
6349;BME280;3207;42.648;23.406;2023-01-19T13:16:49;99069.00;;;5.40;nan
6349;BME280;3207;42.648;23.406;2023-01-19T13:19:21;99070.44;;;5.44;nan
6349;BME280;3207;42.648;23.406;2023-01-19T13:21:56;99057.66;;;5.41;nan
6349;BME280;3207;42.648;23.406;2023-01-19T13:24:23;99080.19;;;5.53;nan
6349;BME280;3207;42.648;23.406;2023-01-19T13:26:55;99079.78;;;5.59;nan
6349;BME280;3207;42.648;23.406;2023-01-19T13:29:29;99075.19;;;5.63;nan
6349;BME280;3207;42.648;23.406;2023-01-19T13:31:59;99068.78;;;5.68;nan
6349;BME280;3207;42.648;23.406;2023-01-19T13:34:29;99076.25;;;5.73;nan
6349;BME280;3207;42.648;23.406;2023-01-19T13:36:59;99077.19;;;5.72;nan
6349;BME280;3207;42.648;23.406;2023-01-19T13:39:28;99089.00;;;5.63;nan
6349;BME280;3207;42.648;23.406;2023-01-19T13:41:59;99095.84;;;5.64;nan
6349;BME280;3207;42.648;23.406;2023-01-19T13:44:29;99093.47;;;5.61;nan
6349;BME280;3207;42.648;23.406;2023-01-19T13:46:58;99093.88;;;5.55;nan
6349;BME280;3207;42.648;23.406;2023-01-19T13:49:28;99060.13;;;5.30;nan
6349;BME280;3207;42.648;23.406;2023-01-19T13:52:11;99105.34;;;5.26;nan
6349;BME280;3207;42.648;23.406;2023-01-19T13:54:46;99113.31;;;5.23;nan
6349;BME280;3207;42.648;23.406;2023-01-19T13:57:21;99119.09;;;5.13;nan
6349;BME280;3207;42.648;23.406;2023-01-19T14:00:01;99121.16;;;5.08;nan
6349;BME280;3207;42.648;23.406;2023-01-19T14:02:28;99125.88;;;4.75;nan
6349;BME280;3207;42.648;23.406;2023-01-19T14:04:55;99126.03;;;4.86;nan
6349;BME280;3207;42.648;23.406;2023-01-19T14:07:23;99129.06;;;4.93;nan
6349;BME280;3207;42.648;23.406;2023-01-19T14:10:01;99123.91;;;4.78;nan